Terminal Aerodrome Forecast
Issued by NWS

Home | Current Version | Previous Version | Text Only | Print | Product List | Glossary On
Versions: 1 2 3 4 5 6 7 8 9 10 11 12 13
000
FTUS46 KMFR 261121
TAFRBG
TAF
KRBG 261121Z 2612/2712 15002KT 1SM BR BKN003 BKN010 BKN040
     FM261900 VRB02KT 6SM BR BKN012 BKN050
     FM262100 VRB03KT P6SM FEW015 SCT050
     FM270900 VRB03KT 3SM BR BKN007 BKN060=

USA.gov is the U.S. government's official web portal to all federal, state and local government web resources and services.